Time;durP1;ratioP1;P1;durP2;ratioP2;P2;SDS_P1;SDS_P2;PMS_P1;PMS_P2;Temp;Humidity;BMP_temperature;BMP_pressure;BME280_temperature;BME280_humidity;BME280_pressure;Samples;Min_cycle;Max_cycle;Signal;HPM_P1;HPM_P2
2021/01/03 15:43:08;;;;;;;6.00;3.23;;;4.30;99.90;;;;;;4955302;23;20267;-73
2021/01/03 15:45:40;;;;;;;5.40;2.90;;;4.40;99.90;;;;;;4954053;28;20218;-73
2021/01/03 15:48:07;;;;;;;6.67;3.00;;;4.60;99.90;;;;;;4954889;29;20208;-71
2021/01/03 15:50:34;;;;;;;5.47;2.80;;;4.70;99.90;;;;;;4954483;29;20556;-71
2021/01/03 15:53:04;;;;;;;7.10;2.83;;;4.60;99.90;;;;;;4955040;29;20243;-70
2021/01/03 15:55:31;;;;;;;4.07;2.30;;;4.60;99.90;;;;;;4955152;29;20219;-71
2021/01/03 15:57:57;;;;;;;6.63;3.40;;;4.50;99.90;;;;;;4954718;29;20212;-73
2021/01/03 16:00:25;;;;;;;6.53;2.73;;;4.60;99.90;;;;;;4954838;29;20212;-73
2021/01/03 16:02:52;;;;;;;5.97;3.03;;;4.40;99.90;;;;;;4954711;29;20212;-75
2021/01/03 16:05:19;;;;;;;6.47;3.03;;;4.40;99.90;;;;;;4954658;29;20222;-72
2021/01/03 16:07:46;;;;;;;7.13;2.67;;;4.50;99.90;;;;;;4954575;29;20220;-72
2021/01/03 16:10:14;;;;;;;6.17;2.73;;;4.60;99.90;;;;;;4954318;28;20224;-73
2021/01/03 16:12:41;;;;;;;5.43;2.90;;;4.40;99.90;;;;;;4954385;29;20286;-72
2021/01/03 16:15:09;;;;;;;5.10;3.03;;;4.40;99.90;;;;;;4954823;29;20208;-73
2021/01/03 16:17:36;;;;;;;5.83;2.87;;;4.50;99.90;;;;;;4954820;29;20219;-72
2021/01/03 16:20:05;;;;;;;7.13;3.07;;;4.40;99.90;;;;;;4953887;29;20789;-72
2021/01/03 16:23:12;;;;;;;6.63;2.70;;;4.50;99.90;;;;;;4954387;29;20215;-73
2021/01/03 16:25:55;;;;;;;5.80;3.10;;;4.30;99.90;;;;;;4954563;29;20208;-72
2021/01/03 16:28:35;;;;;;;5.03;2.80;;;4.30;99.90;;;;;;4954422;29;20231;-75
2021/01/03 16:31:18;;;;;;;5.43;2.90;;;4.50;99.90;;;;;;4954397;29;20219;-73
2021/01/03 16:33:54;;;;;;;8.20;3.63;;;4.40;99.90;;;;;;4954262;29;20215;-72
2021/01/03 16:36:34;;;;;;;6.00;3.00;;;4.50;99.90;;;;;;4954402;28;20203;-73
2021/01/03 16:39:16;;;;;;;6.97;3.30;;;4.50;99.90;;;;;;4954314;29;20227;-73
2021/01/03 16:42:08;;;;;;;7.03;3.23;;;4.30;99.90;;;;;;4954076;29;20667;-73
2021/01/03 16:44:49;;;;;;;7.97;3.00;;;4.50;99.90;;;;;;4954284;29;20251;-73
2021/01/03 16:47:30;;;;;;;6.43;2.97;;;4.30;99.90;;;;;;4954640;29;20212;-73
2021/01/03 16:50:02;;;;;;;6.63;3.67;;;4.20;99.90;;;;;;4954218;29;20231;-74
2021/01/03 16:52:33;;;;;;;4.97;2.70;;;4.20;99.90;;;;;;4954221;28;20243;-73
2021/01/03 16:55:06;;;;;;;7.17;3.00;;;4.30;99.90;;;;;;4954322;28;20220;-73
2021/01/03 16:58:02;;;;;;;6.47;3.40;;;4.20;99.90;;;;;;4957630;29;20216;-73
2021/01/03 17:00:48;;;;;;;6.27;3.27;;;4.40;99.90;;;;;;4948731;28;20298;-72
2021/01/03 17:03:27;;;;;;;7.80;3.23;;;4.50;99.90;;;;;;4957799;28;20207;-73
2021/01/03 17:05:55;;;;;;;10.27;3.90;;;4.60;99.90;;;;;;4957935;29;20259;-72
2021/01/03 17:08:35;;;;;;;5.50;3.20;;;4.50;99.90;;;;;;4957791;29;20227;-74
2021/01/03 17:11:05;;;;;;;6.65;3.05;;;4.50;99.90;;;;;;4957347;29;20219;-72
2021/01/03 17:14:02;;;;;;;8.50;3.40;;;4.40;99.90;;;;;;4957649;29;20219;-69
2021/01/03 17:16:39;;;;;;;6.17;3.50;;;4.30;99.90;;;;;;4958594;28;20212;-73
2021/01/03 17:19:20;;;;;;;10.13;4.37;;;4.20;99.90;;;;;;4946949;28;20266;-73
2021/01/03 17:21:55;;;;;;;8.90;3.73;;;4.40;99.90;;;;;;4937075;28;20231;-71
2021/01/03 17:24:33;;;;;;;6.53;3.30;;;4.40;99.90;;;;;;4942230;28;20203;-73
2021/01/03 17:27:20;;;;;;;5.57;3.40;;;4.30;99.90;;;;;;4936377;29;20216;-72
2021/01/03 17:29:58;;;;;;;6.57;3.00;;;4.40;99.90;;;;;;4936469;29;20660;-68
2021/01/03 17:32:56;;;;;;;7.63;3.43;;;4.30;99.90;;;;;;4953065;28;20275;-67
2021/01/03 17:35:30;;;;;;;6.33;3.13;;;4.30;99.90;;;;;;4955277;28;20212;-69
2021/01/03 17:38:20;;;;;;;5.93;3.23;;;4.40;99.90;;;;;;4954709;29;20218;-71
2021/01/03 17:41:09;;;;;;;8.10;3.57;;;4.50;99.90;;;;;;4941711;29;20275;-70
2021/01/03 17:43:37;;;;;;;6.63;3.30;;;4.50;99.90;;;;;;4954727;29;20238;-68
2021/01/03 17:46:05;;;;;;;8.37;3.33;;;4.60;99.90;;;;;;4953846;28;20219;-72
2021/01/03 17:48:37;;;;;;;6.20;3.17;;;4.60;99.90;;;;;;4954257;28;20235;-71
2021/01/03 17:51:04;;;;;;;7.57;3.10;;;4.60;99.90;;;;;;4954407;28;20216;-71
2021/01/03 17:53:35;;;;;;;7.93;3.50;;;4.60;99.90;;;;;;4950559;28;20267;-69
2021/01/03 17:56:01;;;;;;;6.77;3.00;;;4.70;99.90;;;;;;4954249;28;20271;-69
2021/01/03 17:58:28;;;;;;;11.17;3.73;;;4.60;99.90;;;;;;4954882;29;20262;-70
2021/01/03 18:00:54;;;;;;;8.03;3.67;;;4.70;99.90;;;;;;4955301;29;20215;-69
2021/01/03 18:03:26;;;;;;;8.03;3.50;;;4.70;99.90;;;;;;4955151;28;20602;-72
2021/01/03 18:05:52;;;;;;;7.90;3.57;;;4.70;99.90;;;;;;4955039;29;20356;-70
2021/01/03 18:08:19;;;;;;;9.33;3.67;;;4.70;99.90;;;;;;4954559;28;20649;-74
2021/01/03 18:10:46;;;;;;;7.03;3.57;;;4.80;99.90;;;;;;4954762;28;20207;-69
2021/01/03 18:13:13;;;;;;;7.10;3.83;;;4.70;99.90;;;;;;4966263;28;20271;-67
2021/01/03 18:15:39;;;;;;;8.77;3.43;;;4.80;99.90;;;;;;4954891;28;20218;-68
2021/01/03 18:18:06;;;;;;;7.63;3.07;;;4.90;99.90;;;;;;4954914;29;20208;-68
2021/01/03 18:20:32;;;;;;;9.17;3.30;;;4.80;99.90;;;;;;4955317;28;20223;-72
2021/01/03 18:22:59;;;;;;;6.23;3.40;;;4.70;99.90;;;;;;4955611;28;20267;-68
2021/01/03 18:25:25;;;;;;;6.40;3.10;;;4.70;99.90;;;;;;4950540;28;20208;-68
2021/01/03 18:27:52;;;;;;;8.33;3.60;;;4.80;99.90;;;;;;4935044;28;20555;-69
2021/01/03 18:30:21;;;;;;;10.53;3.43;;;4.90;99.90;;;;;;4936383;29;20229;-68
2021/01/03 18:32:48;;;;;;;7.47;3.73;;;4.60;99.90;;;;;;4935458;29;20255;-69
2021/01/03 18:35:16;;;;;;;9.47;3.93;;;4.60;99.90;;;;;;4947903;28;20216;-68
2021/01/03 18:37:43;;;;;;;9.30;3.13;;;4.50;99.90;;;;;;4955156;29;20211;-69
2021/01/03 18:40:10;;;;;;;8.73;4.07;;;4.40;99.90;;;;;;4953721;28;20236;-70
2021/01/03 18:42:37;;;;;;;9.17;3.33;;;4.50;99.90;;;;;;4954346;28;20216;-68
2021/01/03 18:45:05;;;;;;;9.47;3.70;;;4.60;99.90;;;;;;4955563;28;20278;-73
2021/01/03 18:47:31;;;;;;;10.87;3.93;;;4.50;99.90;;;;;;4955880;29;20214;-73
2021/01/03 18:49:58;;;;;;;7.00;3.47;;;4.40;99.90;;;;;;4955857;29;20224;-73
2021/01/03 18:52:24;;;;;;;8.87;3.23;;;4.50;99.90;;;;;;4955774;29;20243;-72
2021/01/03 18:54:50;;;;;;;10.47;4.27;;;4.50;99.90;;;;;;4956080;29;20219;-72
2021/01/03 18:57:17;;;;;;;10.13;4.07;;;4.40;99.90;;;;;;4955822;28;20212;-73
2021/01/03 18:59:43;;;;;;;9.57;3.87;;;4.40;99.90;;;;;;4955800;29;20235;-73
2021/01/03 19:02:10;;;;;;;7.50;3.40;;;4.40;99.90;;;;;;4955448;29;20238;-73
2021/01/03 19:04:36;;;;;;;7.77;4.10;;;4.50;99.90;;;;;;4955629;29;20267;-73
2021/01/03 19:07:03;;;;;;;7.90;3.87;;;4.50;99.90;;;;;;4955634;28;20208;-72
2021/01/03 19:09:31;;;;;;;7.30;4.07;;;4.50;99.90;;;;;;4955228;29;20232;-73
2021/01/03 19:12:02;;;;;;;11.40;3.83;;;4.60;99.90;;;;;;4955413;29;20240;-73
2021/01/03 19:14:29;;;;;;;11.03;3.97;;;4.50;99.90;;;;;;4955335;29;20208;-73
2021/01/03 19:16:55;;;;;;;10.03;4.13;;;4.40;99.90;;;;;;4955101;28;20291;-73
2021/01/03 19:19:23;;;;;;;8.13;3.63;;;4.50;99.90;;;;;;4955523;28;20232;-73
2021/01/03 19:21:49;;;;;;;10.63;4.17;;;4.60;99.90;;;;;;4955728;29;20207;-72
2021/01/03 19:24:17;;;;;;;7.27;3.63;;;4.60;99.90;;;;;;4955165;28;20279;-73
2021/01/03 19:26:44;;;;;;;10.23;4.80;;;4.60;99.90;;;;;;4955143;28;20219;-72
2021/01/03 19:29:10;;;;;;;7.83;3.60;;;4.70;99.90;;;;;;4955243;29;20235;-73
2021/01/03 19:31:38;;;;;;;11.83;4.73;;;4.80;99.90;;;;;;4955100;29;20714;-72
2021/01/03 19:34:06;;;;;;;11.57;4.47;;;4.80;99.90;;;;;;4955452;29;20208;-73
2021/01/03 19:36:35;;;;;;;10.13;4.03;;;4.80;99.90;;;;;;4954715;28;20660;-73
2021/01/03 19:39:03;;;;;;;8.53;3.90;;;4.80;99.90;;;;;;4955016;29;20232;-73
2021/01/03 19:41:33;;;;;;;8.20;3.40;;;4.70;99.90;;;;;;4955234;29;20211;-72
2021/01/03 19:44:01;;;;;;;9.97;4.10;;;4.60;99.90;;;;;;4955046;29;20216;-72
2021/01/03 19:46:29;;;;;;;9.27;3.87;;;4.50;99.90;;;;;;4954950;28;20227;-73
2021/01/03 19:48:56;;;;;;;8.97;4.20;;;4.50;99.90;;;;;;4954937;28;20275;-73
2021/01/03 19:51:23;;;;;;;9.83;4.00;;;4.40;99.90;;;;;;4955081;29;20212;-73
2021/01/03 19:53:51;;;;;;;10.37;4.80;;;4.40;99.90;;;;;;4955036;29;20265;-72
2021/01/03 19:56:17;;;;;;;10.93;3.80;;;4.60;99.90;;;;;;4954923;28;20212;-73
2021/01/03 19:58:44;;;;;;;6.43;3.43;;;4.50;99.90;;;;;;4954807;29;20223;-73
2021/01/03 20:01:13;;;;;;;7.33;3.50;;;4.40;99.90;;;;;;4954827;29;20204;-73
2021/01/03 20:03:39;;;;;;;8.70;3.40;;;4.30;99.90;;;;;;4954677;29;20219;-73
2021/01/03 20:06:06;;;;;;;7.23;3.77;;;4.10;99.90;;;;;;4954696;28;20563;-74
2021/01/03 20:08:32;;;;;;;7.43;3.57;;;4.10;99.90;;;;;;4954350;29;20236;-72
2021/01/03 20:10:59;;;;;;;9.50;3.57;;;4.10;99.90;;;;;;4954542;29;20227;-72
2021/01/03 20:13:26;;;;;;;7.60;4.10;;;4.30;99.90;;;;;;4954658;29;20235;-71
2021/01/03 20:15:52;;;;;;;7.70;3.40;;;4.30;99.90;;;;;;4954478;28;20204;-71
2021/01/03 20:18:18;;;;;;;7.07;3.10;;;4.30;99.90;;;;;;4954254;28;20259;-71
2021/01/03 20:20:45;;;;;;;7.73;3.40;;;4.30;99.90;;;;;;4954642;29;20215;-71
2021/01/03 20:23:11;;;;;;;6.20;3.03;;;4.20;99.90;;;;;;4954559;29;20251;-71
2021/01/03 20:25:37;;;;;;;6.63;3.67;;;4.20;99.90;;;;;;4954297;28;20671;-71
2021/01/03 20:28:05;;;;;;;6.50;3.07;;;4.30;99.90;;;;;;4954232;29;20203;-71
2021/01/03 20:30:31;;;;;;;5.90;2.73;;;4.30;99.90;;;;;;4955304;28;20575;-71
2021/01/03 20:32:57;;;;;;;7.30;3.60;;;4.30;99.90;;;;;;4958133;29;20258;-72
2021/01/03 20:35:24;;;;;;;6.53;3.30;;;4.40;99.90;;;;;;4958347;28;20243;-71
2021/01/03 20:37:50;;;;;;;10.80;3.63;;;4.50;99.90;;;;;;4958627;29;20208;-72
2021/01/03 20:40:16;;;;;;;6.00;3.37;;;4.50;99.90;;;;;;4957758;29;20583;-71
2021/01/03 20:42:42;;;;;;;6.40;2.77;;;4.40;99.90;;;;;;4958223;29;20312;-71
2021/01/03 20:45:11;;;;;;;8.60;3.60;;;4.10;99.90;;;;;;4958044;28;20219;-72
2021/01/03 20:47:37;;;;;;;7.13;3.20;;;4.20;99.90;;;;;;4958155;29;20211;-71
2021/01/03 20:50:05;;;;;;;7.53;3.73;;;4.20;99.90;;;;;;4958094;29;20703;-71
2021/01/03 20:52:31;;;;;;;7.50;3.37;;;4.30;99.90;;;;;;4958071;29;20769;-72
2021/01/03 20:54:57;;;;;;;10.00;3.83;;;4.40;99.90;;;;;;4957843;28;20243;-72
2021/01/03 20:57:24;;;;;;;5.77;3.00;;;4.40;99.90;;;;;;4957682;29;20207;-71
2021/01/03 20:59:50;;;;;;;6.00;3.30;;;4.20;99.90;;;;;;4957826;29;20228;-71
2021/01/03 21:02:17;;;;;;;6.17;2.90;;;4.10;99.90;;;;;;4957516;29;20663;-71
2021/01/03 21:04:43;;;;;;;7.73;3.50;;;4.00;99.90;;;;;;4957884;29;20579;-71
2021/01/03 21:07:09;;;;;;;6.40;3.23;;;3.90;99.90;;;;;;4957996;28;20208;-72
2021/01/03 21:09:38;;;;;;;7.67;3.53;;;3.90;99.90;;;;;;4957498;29;20232;-71
2021/01/03 21:12:06;;;;;;;7.70;3.13;;;3.90;99.90;;;;;;4957794;28;20591;-71
2021/01/03 21:14:33;;;;;;;6.27;3.43;;;3.90;99.90;;;;;;4956947;29;20208;-71
2021/01/03 21:17:00;;;;;;;7.10;3.33;;;3.80;99.90;;;;;;4957253;28;20219;-72
2021/01/03 21:19:27;;;;;;;8.33;3.40;;;3.70;99.90;;;;;;4957762;29;20287;-72
2021/01/03 21:21:58;;;;;;;6.57;3.47;;;3.70;99.90;;;;;;4957801;29;20207;-72
2021/01/03 21:24:25;;;;;;;8.63;3.60;;;3.70;99.90;;;;;;4957400;29;20204;-71
2021/01/03 21:27:31;;;;;;;7.87;3.40;;;3.80;99.90;;;;;;4957292;28;20663;-72
2021/01/03 21:30:05;;;;;;;7.43;2.93;;;3.90;99.90;;;;;;4932810;28;20722;-72
2021/01/03 21:32:38;;;;;;;6.47;3.90;;;3.80;99.90;;;;;;4957382;29;20235;-71
2021/01/03 21:35:14;;;;;;;7.17;3.50;;;3.80;99.90;;;;;;4957380;28;20208;-71
2021/01/03 21:38:03;;;;;;;10.93;3.97;;;3.80;99.90;;;;;;4956652;28;20219;-72
2021/01/03 21:40:46;;;;;;;7.70;3.43;;;4.00;99.90;;;;;;4957443;29;20215;-71
2021/01/03 21:43:33;;;;;;;7.80;3.80;;;3.90;99.90;;;;;;4956563;28;20227;-71
2021/01/03 21:46:05;;;;;;;7.77;3.90;;;3.90;99.90;;;;;;4956200;28;20727;-72
2021/01/03 21:48:38;;;;;;;6.47;3.20;;;3.90;99.90;;;;;;4957220;29;20591;-71
2021/01/03 21:51:12;;;;;;;5.73;3.27;;;3.90;99.90;;;;;;4957272;29;20216;-71
2021/01/03 21:54:00;;;;;;;7.30;3.70;;;3.90;99.90;;;;;;4956902;29;20236;-71
2021/01/03 21:56:57;;;;;;;9.07;4.40;;;4.00;99.90;;;;;;4956965;28;20207;-72
2021/01/03 22:00:04;;;;;;;6.63;3.17;;;4.10;99.90;;;;;;4956992;29;20243;-71
2021/01/03 22:03:10;;;;;;;9.67;4.73;;;4.20;99.90;;;;;;4956911;29;20216;-71
2021/01/03 22:06:19;;;;;;;7.73;3.77;;;4.20;99.90;;;;;;4950701;28;20215;-71
2021/01/03 22:09:20;;;;;;;8.07;3.80;;;4.10;99.90;;;;;;4955552;29;20236;-82
2021/01/03 22:12:02;;;;;;;7.67;3.33;;;4.10;99.90;;;;;;4925215;28;20219;-72
2021/01/03 22:14:44;;;;;;;6.30;3.57;;;4.10;99.90;;;;;;4956199;29;20654;-71
2021/01/03 22:17:20;;;;;;;6.77;3.17;;;4.30;99.90;;;;;;4956030;28;20220;-72
2021/01/03 22:19:57;;;;;;;7.37;3.70;;;4.20;99.90;;;;;;4956596;29;20257;-72
2021/01/03 22:22:46;;;;;;;7.60;4.00;;;4.30;99.90;;;;;;4956133;29;20667;-72
2021/01/03 22:25:18;;;;;;;6.50;3.63;;;4.20;99.90;;;;;;4956449;28;20215;-72
2021/01/03 22:28:02;;;;;;;5.97;3.47;;;4.20;99.90;;;;;;4956581;29;20231;-72
2021/01/03 22:30:49;;;;;;;5.90;3.33;;;4.20;99.90;;;;;;4956331;29;20259;-71
2021/01/03 22:33:23;;;;;;;9.03;4.30;;;4.30;99.90;;;;;;4956357;28;20295;-72
2021/01/03 22:35:54;;;;;;;10.03;4.47;;;4.20;99.90;;;;;;4956133;28;20563;-71
2021/01/03 22:38:35;;;;;;;6.33;3.70;;;4.20;99.90;;;;;;4956221;29;20228;-72
2021/01/03 22:41:09;;;;;;;8.83;4.17;;;4.20;99.90;;;;;;4956405;29;20215;-72
2021/01/03 22:44:11;;;;;;;6.93;3.53;;;4.20;99.90;;;;;;4956003;29;20734;-72
2021/01/03 22:46:56;;;;;;;9.57;3.70;;;4.30;99.90;;;;;;4956062;28;20571;-72
2021/01/03 22:50:04;;;;;;;7.47;3.73;;;4.40;99.90;;;;;;4955850;29;20232;-72
2021/01/03 22:53:04;;;;;;;6.13;3.60;;;4.40;99.90;;;;;;4955424;29;20769;-72
2021/01/03 22:55:46;;;;;;;6.63;3.80;;;4.40;99.90;;;;;;4896407;29;20670;-71
2021/01/03 22:58:47;;;;;;;7.47;3.80;;;4.30;99.90;;;;;;4949155;28;20235;-77
